Hoonah, Alaska
Current Conditions -  °F | °C
As of 4:56 PM on Sunday 21 Dec 2014 (Local Time) from PAOH Reporting Station
Light Rain Light Rain  
Wind Chill: 35°   Ceiling: 8000
Heat Index: 35°   Visibility: 10mi
Dew Point: 35°   Wind: 0mph
Humidity: 100%   Direction: NA
Pressure: 29.54"   Gusts: NA
Location:  58.11°N, 135.45°W
Report Text: PAOH 220156Z AUTO 00000KT 10SM -RA BKN080 02/02 A2954 RMK AO2 TSNO T00160016 P0000 SLP003 $
Loading
Personal Weather Stations






























Interactive Weather Map New forecast layout! Learn more

10-Day Weather Forecast

Advertisements
Track Severe Weather on mobile